Time;durP1;ratioP1;P1;durP2;ratioP2;P2;SDS_P1;SDS_P2;PMS_P1;PMS_P2;Temp;Humidity;BMP_temperature;BMP_pressure;BME280_temperature;BME280_humidity;BME280_pressure;Samples;Min_cycle;Max_cycle;Signal;HPM_P1;HPM_P2
2022/08/03 00:02:15;;;;;;;5.72;3.92;;;;;;;17.07;100.00;165031.63;5031171;28;20026;-65
2022/08/03 00:04:40;;;;;;;6.15;4.13;;;;;;;17.07;100.00;165031.63;5029472;28;20045;-65
2022/08/03 00:07:06;;;;;;;3.95;3.60;;;;;;;17.05;100.00;165026.19;5031247;28;20033;-65
2022/08/03 00:09:31;;;;;;;7.85;3.92;;;;;;;16.99;100.00;165009.94;5029942;28;20041;-65
2022/08/03 00:11:56;;;;;;;4.35;3.08;;;;;;;16.99;100.00;165009.94;5017209;28;20489;-65
2022/08/03 00:14:22;;;;;;;7.78;4.07;;;;;;;16.99;100.00;165008.56;5020359;28;22010;-65
2022/08/03 00:16:47;;;;;;;4.45;3.63;;;;;;;16.96;100.00;165001.78;5031364;28;20025;-65
2022/08/03 00:19:12;;;;;;;7.43;3.47;;;;;;;16.91;100.00;164988.22;5013157;28;20022;-65
2022/08/03 00:21:38;;;;;;;5.32;3.08;;;;;;;16.93;100.00;164995.03;5011477;28;20508;-65
2022/08/03 00:24:03;;;;;;;6.25;3.30;;;;;;;16.91;100.00;164988.22;5009832;28;20025;-63
2022/08/03 00:26:30;;;;;;;5.43;3.63;;;;;;;16.85;100.00;164971.97;5017141;28;20120;-63
2022/08/03 00:28:55;;;;;;;5.78;3.17;;;;;;;16.77;100.00;164953.00;5031312;28;20049;-63
2022/08/03 00:31:21;;;;;;;8.25;4.03;;;;;;;16.77;100.00;164953.00;5029489;28;20038;-62
2022/08/03 00:33:46;;;;;;;6.28;3.97;;;;;;;16.72;100.00;164939.41;5030297;28;20025;-62
2022/08/03 00:36:11;;;;;;;3.88;3.35;;;;;;;16.66;100.00;164923.16;5018073;28;20034;-62
2022/08/03 00:38:37;;;;;;;5.75;4.80;;;;;;;16.61;100.00;164910.97;5011020;28;20018;-62
2022/08/03 00:41:02;;;;;;;7.07;3.63;;;;;;;-146.58;100.00;69501.63;5009530;28;20112;-62
2022/08/03 00:43:27;;;;;;;7.03;3.90;;;;;;;-146.58;100.00;69501.63;5029649;28;20028;-62
2022/08/03 00:45:53;;;;;;;5.88;3.45;;;;;;;-146.58;100.00;69501.63;5029552;28;20053;-62
2022/08/03 00:48:19;;;;;;;10.43;3.78;;;;;;;-146.58;100.00;69501.63;5021803;28;20517;-62
2022/08/03 00:50:46;;;;;;;8.32;4.18;;;;;;;-146.58;100.00;69501.63;5018700;28;20128;-61
2022/08/03 00:53:12;;;;;;;6.50;4.45;;;;;;;-146.58;100.00;69501.63;5031048;28;20033;-61
2022/08/03 00:55:38;;;;;;;7.70;5.15;;;;;;;-146.58;100.00;69501.63;5011374;28;20042;-61
2022/08/03 00:58:05;;;;;;;7.82;5.07;;;;;;;-146.58;100.00;69501.63;5011432;28;20033;-62
2022/08/03 01:00:32;;;;;;;10.68;4.40;;;;;;;-146.58;100.00;69501.63;5013400;28;20038;-61
2022/08/03 01:02:57;;;;;;;6.65;4.18;;;;;;;-146.58;100.00;69501.63;5020866;28;20554;-61
2022/08/03 01:05:24;;;;;;;6.95;5.28;;;;;;;-146.58;100.00;69501.63;5032873;28;20042;-61
2022/08/03 01:08:13;;;;;;;5.82;5.00;;;;;;;-146.58;100.00;69501.63;5034589;28;20025;-61
2022/08/03 01:10:47;;;;;;;9.48;4.68;;;;;;;-146.58;100.00;69501.63;5013047;28;20085;-61
2022/08/03 01:13:31;;;;;;;6.93;5.05;;;;;;;-146.58;100.00;69501.63;5014641;28;20049;-61
2022/08/03 01:16:14;;;;;;;11.02;5.50;;;;;;;-146.58;100.00;69501.63;5023657;28;20048;-61
2022/08/03 01:18:54;;;;;;;9.50;5.35;;;;;;;-146.58;100.00;69501.63;5034077;28;20033;-61
2022/08/03 01:21:39;;;;;;;4.28;3.67;;;;;;;-146.58;100.00;69501.63;5032815;28;20045;-61
2022/08/03 01:24:29;;;;;;;10.70;5.88;;;;;;;-146.58;100.00;69501.63;5014823;28;20025;-61
2022/08/03 01:27:16;;;;;;;6.72;4.78;;;;;;;-146.58;100.00;69501.63;5022635;28;20041;-61
2022/08/03 01:30:06;;;;;;;6.65;5.72;;;;;;;-146.58;100.00;69501.63;5031158;28;20041;-62
2022/08/03 01:32:34;;;;;;;10.15;7.22;;;;;;;-146.58;100.00;69501.63;5033552;28;20392;-63
2022/08/03 01:35:11;;;;;;;10.23;5.55;;;;;;;16.57;100.00;164898.81;5024344;28;20369;-62
2022/08/03 01:37:41;;;;;;;;;;;;;;;16.05;100.00;164763.31;5014990;28;20104;-61
2022/08/03 01:40:07;;;;;;;6.55;5.07;;;;;;;16.05;100.00;164763.31;5012573;28;19941;-61
2022/08/03 01:42:35;;;;;;;7.38;4.80;;;;;;;16.01;100.00;164752.53;5014010;28;20022;-60
2022/08/03 01:45:02;;;;;;;12.75;6.60;;;;;;;15.93;100.00;164732.22;5012943;28;20037;-61
2022/08/03 01:47:29;;;;;;;9.60;6.40;;;;;;;15.92;100.00;164728.13;5029608;28;20099;-61
2022/08/03 01:49:56;;;;;;;9.35;5.70;;;;;;;15.88;100.00;164717.31;5032567;28;20044;-61
2022/08/03 01:52:23;;;;;;;7.50;5.07;;;;;;;15.84;100.00;164709.19;5033955;28;20369;-61
2022/08/03 01:54:51;;;;;;;11.70;6.55;;;;;;;15.83;100.00;164230.06;5030094;28;20124;-61
2022/08/03 01:57:18;;;;;;;8.40;5.43;;;;;;;15.82;100.00;162834.72;5033718;28;20031;-61
2022/08/03 01:59:45;;;;;;;10.05;5.60;;;;;;;15.79;100.00;162804.47;5032300;28;20713;-61
2022/08/03 02:02:15;;;;;;;8.82;5.70;;;;;;;15.75;100.00;163086.09;5032583;28;20079;-61
2022/08/03 02:04:43;;;;;;;7.88;5.47;;;;;;;15.70;100.00;164672.59;5032478;28;20122;-61
2022/08/03 02:07:09;;;;;;;8.25;5.88;;;;;;;15.67;100.00;164663.13;5033307;28;20029;-61
2022/08/03 02:09:38;;;;;;;6.85;5.78;;;;;;;15.67;100.00;163125.94;5030683;28;20053;-61
2022/08/03 02:12:07;;;;;;;7.72;5.15;;;;;;;15.66;100.00;160294.00;5022031;28;20117;-61
2022/08/03 02:14:34;;;;;;;10.88;5.13;;;;;;;15.62;100.00;161459.16;5012292;28;20041;-61
2022/08/03 02:17:00;;;;;;;6.93;5.40;;;;;;;15.57;100.00;162907.03;5030794;28;20067;-62
2022/08/03 02:19:27;;;;;;;8.02;5.85;;;;;;;15.51;100.00;163063.44;5031535;28;20033;-62
2022/08/03 02:21:53;;;;;;;8.40;5.85;;;;;;;15.47;100.00;159925.44;5032999;28;20404;-61
2022/08/03 02:24:18;;;;;;;10.77;6.80;;;;;;;15.49;100.00;155363.50;5016427;28;20038;-61
2022/08/03 02:26:45;;;;;;;7.20;6.30;;;;;;;15.46;100.00;151801.31;5013390;28;20029;-62
2022/08/03 02:29:14;;;;;;;6.55;5.30;;;;;;;15.50;100.00;150389.00;5011547;28;20038;-64
2022/08/03 02:31:42;;;;;;;10.02;6.15;;;;;;;15.49;100.00;148967.28;5013250;28;20049;-64
2022/08/03 02:34:11;;;;;;;9.43;6.95;;;;;;;15.49;100.00;147191.06;5012010;28;20113;-64
2022/08/03 02:36:39;;;;;;;6.78;6.18;;;;;;;15.48;100.00;145770.44;5013044;28;20615;-65
2022/08/03 02:39:08;;;;;;;9.43;6.38;;;;;;;15.49;100.00;143644.59;5013846;28;20438;-64
2022/08/03 02:41:42;;;;;;;13.88;7.13;;;;;;;15.49;100.00;141517.44;5012831;28;20108;-64
2022/08/03 02:44:09;;;;;;;12.23;7.57;;;;;;;15.49;100.00;140099.94;5023836;28;20041;-64
2022/08/03 02:46:40;;;;;;;16.92;7.53;;;;;;;15.49;100.00;140099.94;5032323;28;20030;-64
2022/08/03 02:49:07;;;;;;;11.38;6.97;;;;;;;15.48;100.00;139743.34;5031267;28;20032;-64
2022/08/03 02:51:35;;;;;;;9.82;7.22;;;;;;;15.48;100.00;139387.97;5032619;28;20029;-63
2022/08/03 02:54:05;;;;;;;7.05;6.35;;;;;;;-146.58;100.00;69501.63;5018337;28;20037;-64
2022/08/03 02:56:32;;;;;;;9.27;7.30;;;;;;;-146.58;100.00;69501.63;5011364;28;20060;-63
2022/08/03 02:58:59;;;;;;;11.82;6.22;;;;;;;-146.58;100.00;69501.63;5012551;28;20022;-63
2022/08/03 03:01:27;;;;;;;8.80;7.20;;;;;;;-146.58;100.00;69501.63;5021573;28;20140;-64
2022/08/03 03:03:54;;;;;;;7.80;6.18;;;;;;;-146.58;100.00;69501.63;5027370;28;20045;-63
2022/08/03 03:06:21;;;;;;;12.35;8.00;;;;;;;-146.58;100.00;69501.63;5030503;28;20111;-64
2022/08/03 03:08:47;;;;;;;10.68;8.10;;;;;;;-146.58;100.00;69501.63;5028044;28;20118;-63
2022/08/03 03:11:16;;;;;;;12.40;7.88;;;;;;;-146.58;100.00;69501.63;5016572;28;20099;-64
2022/08/03 03:13:43;;;;;;;12.20;7.47;;;;;;;-146.58;100.00;69501.63;5032435;28;20610;-64
2022/08/03 03:16:11;;;;;;;11.20;8.93;;;;;;;-146.58;100.00;69501.63;5030614;28;20041;-62
2022/08/03 03:18:37;;;;;;;17.50;8.43;;;;;;;-146.58;100.00;69501.63;5020450;28;20092;-61
2022/08/03 03:21:03;;;;;;;11.93;7.78;;;;;;;-146.58;100.00;69501.63;5010986;28;20042;-62
2022/08/03 03:23:30;;;;;;;12.32;8.52;;;;;;;-146.58;100.00;69501.63;5020284;28;20033;-62
2022/08/03 03:25:57;;;;;;;11.23;8.30;;;;;;;-146.58;100.00;69501.63;5029900;28;20033;-62
2022/08/03 03:28:23;;;;;;;10.02;8.98;;;;;;;-146.58;100.00;69501.63;5031708;28;20042;-60
2022/08/03 03:30:49;;;;;;;13.38;8.77;;;;;;;-146.58;100.00;69501.63;5026354;28;20041;-60
2022/08/03 03:33:15;;;;;;;17.85;10.63;;;;;;;-146.58;100.00;69501.63;5031723;28;20029;-60
2022/08/03 03:35:42;;;;;;;22.38;10.30;;;;;;;-146.58;100.00;69501.63;5030455;28;20037;-60
2022/08/03 03:38:08;;;;;;;17.33;11.27;;;;;;;-146.58;100.00;69501.63;5020445;28;20107;-61
2022/08/03 03:40:34;;;;;;;11.27;10.13;;;;;;;-146.58;100.00;69501.63;5028600;28;20080;-61
2022/08/03 03:42:59;;;;;;;11.52;10.05;;;;;;;-146.58;100.00;69501.63;5031721;28;20492;-61
2022/08/03 03:45:26;;;;;;;14.77;10.95;;;;;;;-146.58;100.00;69501.63;5029948;28;20041;-61
2022/08/03 03:47:51;;;;;;;14.55;11.65;;;;;;;-146.58;100.00;69501.63;5031203;28;20025;-61
2022/08/03 03:50:18;;;;;;;15.52;10.63;;;;;;;-146.58;100.00;69501.63;5029354;28;20111;-61
2022/08/03 03:52:43;;;;;;;18.17;12.15;;;;;;;-146.58;100.00;69501.63;5031108;28;20022;-61
2022/08/03 03:55:08;;;;;;;13.48;10.55;;;;;;;-146.58;100.00;69501.63;5029949;28;20103;-61
2022/08/03 03:57:34;;;;;;;20.50;11.73;;;;;;;-146.58;100.00;69501.63;5018850;28;20024;-61
2022/08/03 03:59:59;;;;;;;20.10;10.93;;;;;;;-146.58;100.00;69501.63;5020573;28;20044;-61
2022/08/03 04:02:25;;;;;;;11.88;9.82;;;;;;;-146.58;100.00;69501.63;5018855;28;20428;-62
2022/08/03 04:10:59;;;;;;;22.38;12.15;;;;;;;-146.58;100.00;69501.63;5011438;28;20048;-62
2022/08/03 04:13:32;;;;;;;15.10;11.10;;;;;;;-146.58;100.00;69501.63;5011142;28;20021;-62
2022/08/03 04:15:58;;;;;;;16.90;11.05;;;;;;;-146.58;100.00;69501.63;5012541;28;20104;-62
2022/08/03 04:18:26;;;;;;;21.10;13.15;;;;;;;-146.58;100.00;69501.63;5011335;28;20389;-62
2022/08/03 04:20:54;;;;;;;17.30;11.68;;;;;;;-146.58;100.00;69501.63;5010134;28;20064;-62
2022/08/03 04:23:23;;;;;;;15.48;11.18;;;;;;;-146.58;100.00;69501.63;5018536;28;20121;-62
2022/08/03 04:25:50;;;;;;;14.68;11.02;;;;;;;-146.58;100.00;69501.63;5029797;28;20048;-62
2022/08/03 04:28:17;;;;;;;18.67;11.10;;;;;;;-146.58;100.00;69501.63;5030272;28;20136;-59
2022/08/03 04:30:47;;;;;;;13.65;11.27;;;;;;;-146.58;100.00;69501.63;5015457;28;20050;-58
2022/08/03 04:33:13;;;;;;;19.15;11.35;;;;;;;-146.58;100.00;69501.63;5010848;28;20030;-58
2022/08/03 04:35:42;;;;;;;17.65;10.80;;;;;;;-146.58;100.00;69501.63;5015996;28;20442;-58
2022/08/03 04:38:09;;;;;;;18.52;9.48;;;;;;;-146.58;100.00;69501.63;5014434;28;20450;-58
2022/08/03 04:40:38;;;;;;;16.02;9.23;;;;;;;15.48;100.00;139387.97;5019486;28;20038;-58
2022/08/03 04:43:04;;;;;;;20.00;9.85;;;;;;;16.60;100.00;112046.53;5018657;28;20408;-58
2022/08/03 04:45:31;;;;;;;17.10;10.65;;;;;;;16.74;100.00;111366.84;5019565;28;20034;-58
2022/08/03 04:47:57;;;;;;;13.60;9.77;;;;;;;16.79;100.00;111728.44;5019154;28;20080;-58
2022/08/03 04:50:24;;;;;;;14.55;10.45;;;;;;;-146.58;100.00;69501.63;5019084;28;20069;-58
2022/08/03 04:52:49;;;;;;;11.90;8.75;;;;;;;-146.58;100.00;69501.63;5014288;28;20025;-58
2022/08/03 04:55:25;;;;;;;12.43;9.60;;;;;;;-146.58;100.00;69501.63;5029359;28;20140;-58
2022/08/03 04:57:50;;;;;;;18.75;11.15;;;;;;;-146.58;100.00;69501.63;5016662;28;20049;-58
2022/08/03 05:00:16;;;;;;;19.40;9.60;;;;;;;16.85;100.00;112442.84;5024602;28;20037;-59
2022/08/03 05:02:42;;;;;;;15.43;9.05;;;;;;;17.27;100.00;110048.78;5028433;28;20041;-58
2022/08/03 05:05:08;;;;;;;15.35;10.18;;;;;;;17.39;100.00;109011.03;5012579;28;20034;-58
2022/08/03 05:07:33;;;;;;;17.20;9.60;;;;;;;17.50;100.00;107971.44;5010487;28;20144;-59
2022/08/03 05:09:58;;;;;;;19.30;8.80;;;;;;;17.63;100.00;108345.19;5009520;28;20042;-62
2022/08/03 05:12:24;;;;;;;30.23;8.93;;;;;;;17.73;100.00;110834.16;5010920;28;20030;-62
2022/08/03 05:14:49;;;;;;;18.38;8.75;;;;;;;17.83;100.00;114382.81;5009606;28;20088;-62
2022/08/03 05:17:14;;;;;;;14.52;8.18;;;;;;;-146.58;100.00;69501.63;5011143;28;20026;-62
2022/08/03 05:19:40;;;;;;;14.70;8.43;;;;;;;17.95;100.00;123959.00;5008926;28;20033;-62
2022/08/03 05:22:05;;;;;;;14.55;9.13;;;;;;;18.06;100.00;127171.72;5009265;28;20025;-62
2022/08/03 05:24:30;;;;;;;13.68;7.75;;;;;;;18.16;100.00;127546.06;5025548;28;20538;-62
2022/08/03 05:26:56;;;;;;;9.68;7.72;;;;;;;-146.58;100.00;69501.63;5027136;28;20417;-62
2022/08/03 05:29:21;;;;;;;14.20;9.13;;;;;;;-146.58;100.00;69501.63;5014011;28;20514;-62
2022/08/03 05:31:46;;;;;;;13.23;8.18;;;;;;;-146.58;100.00;69501.63;5014649;28;20033;-62
2022/08/03 05:34:12;;;;;;;11.80;7.15;;;;;;;18.71;100.00;139747.50;5013009;28;20046;-62
2022/08/03 05:36:38;;;;;;;10.93;8.23;;;;;;;18.86;100.00;147622.66;5018844;28;20080;-62
2022/08/03 05:39:03;;;;;;;15.75;6.50;;;;;;;18.98;100.00;158373.09;5028542;28;20048;-61
2022/08/03 05:41:29;;;;;;;10.30;6.93;;;;;;;19.10;100.00;165005.84;5014716;28;20049;-60
2022/08/03 05:43:54;;;;;;;17.15;6.15;;;;;;;19.18;100.00;165584.84;5011789;28;20478;-59
2022/08/03 05:46:23;;;;;;;13.10;6.47;;;;;;;19.31;100.00;165620.16;5020111;28;20399;-60
2022/08/03 05:48:48;;;;;;;13.85;6.93;;;;;;;-146.58;100.00;69501.63;5032679;28;20079;-60
2022/08/03 05:51:13;;;;;;;9.95;7.30;;;;;;;-146.58;100.00;69501.63;5030097;28;20042;-60
2022/08/03 05:53:40;;;;;;;8.70;6.18;;;;;;;-146.58;100.00;69501.63;5031654;28;20401;-60
2022/08/03 05:56:05;;;;;;;11.35;5.95;;;;;;;-146.58;100.00;69501.63;5031790;28;20666;-60
2022/08/03 05:58:30;;;;;;;11.43;6.57;;;;;;;-146.58;100.00;69501.63;5032184;28;20017;-60
2022/08/03 06:00:56;;;;;;;17.63;8.35;;;;;;;-146.58;100.00;69501.63;5027997;28;20471;-60
2022/08/03 06:03:21;;;;;;;16.63;6.07;;;;;;;-146.58;100.00;69501.63;5033033;28;20476;-60
2022/08/03 06:05:46;;;;;;;17.83;7.57;;;;;;;-146.58;100.00;69501.63;5024352;28;20448;-60
2022/08/03 06:08:12;;;;;;;16.50;6.57;;;;;;;-146.58;100.00;69501.63;5030586;28;20029;-60
2022/08/03 06:10:37;;;;;;;13.77;6.57;;;;;;;-146.58;100.00;69501.63;5015171;28;20041;-60
2022/08/03 06:13:03;;;;;;;22.65;7.68;;;;;;;-146.58;100.00;69501.63;5030258;28;20032;-62
2022/08/03 06:15:29;;;;;;;16.02;8.20;;;;;;;-146.58;100.00;69501.63;5014599;28;20041;-63
2022/08/03 06:17:56;;;;;;;12.10;6.03;;;;;;;-146.58;100.00;69501.63;5032909;28;20041;-63
2022/08/03 06:20:21;;;;;;;15.82;6.00;;;;;;;-146.58;100.00;69501.63;5029666;28;20038;-59
2022/08/03 06:22:47;;;;;;;8.25;6.22;;;;;;;19.31;100.00;165620.16;5032452;28;20088;-58
2022/08/03 06:25:13;;;;;;;9.50;6.65;;;;;;;21.31;100.00;166144.19;5031145;28;20405;-59
2022/08/03 06:27:41;;;;;;;20.08;6.45;;;;;;;21.49;100.00;166193.06;5031753;28;20041;-60
2022/08/03 06:30:09;;;;;;;8.95;5.85;;;;;;;21.57;100.00;166213.50;5022135;28;20092;-59
2022/08/03 06:32:35;;;;;;;11.00;6.88;;;;;;;21.62;100.00;166227.06;5012700;28;20022;-60
2022/08/03 06:35:00;;;;;;;14.70;6.32;;;;;;;21.81;100.00;166276.00;5017667;28;20057;-60
2022/08/03 06:37:26;;;;;;;18.38;5.32;;;;;;;22.01;100.00;166328.94;5027703;28;20489;-59
2022/08/03 06:39:51;;;;;;;9.50;4.70;;;;;;;22.16;100.00;166369.72;5022759;28;20033;-60
2022/08/03 06:42:17;;;;;;;13.85;5.72;;;;;;;-146.58;100.00;69501.63;5021880;28;20401;-59
2022/08/03 06:44:43;;;;;;;14.32;4.35;;;;;;;22.29;100.00;166403.69;5011025;28;20037;-59
2022/08/03 06:47:08;;;;;;;9.82;3.92;;;;;;;22.32;100.00;166410.47;5025865;28;20025;-59
2022/08/03 06:49:33;;;;;;;19.08;5.30;;;;;;;22.40;100.00;166432.28;5030469;28;20045;-60
2022/08/03 06:51:59;;;;;;;7.47;3.60;;;;;;;22.41;100.00;166435.00;5032372;28;20030;-59
2022/08/03 06:54:24;;;;;;;21.60;4.30;;;;;;;22.55;100.00;166470.31;5030840;28;20056;-60
2022/08/03 06:56:50;;;;;;;8.50;3.47;;;;;;;22.81;100.00;166541.00;5018344;28;20389;-60
2022/08/03 06:59:15;;;;;;;9.85;3.47;;;;;;;23.22;100.00;166647.06;5010728;28;20037;-60
2022/08/03 07:01:40;;;;;;;18.63;3.88;;;;;;;23.49;100.00;166719.09;5012834;28;20493;-60
2022/08/03 07:04:06;;;;;;;14.77;4.25;;;;;;;23.65;100.00;166761.25;5011032;28;20026;-60
2022/08/03 07:06:31;;;;;;;14.70;4.43;;;;;;;23.92;100.00;166833.31;5011701;28;20022;-60
2022/08/03 07:08:58;;;;;;;12.27;4.22;;;;;;;24.30;100.00;166932.66;5028713;28;20022;-60
2022/08/03 07:11:23;;;;;;;17.60;4.07;;;;;;;24.59;100.00;167008.84;5010780;28;20042;-60
2022/08/03 07:13:49;;;;;;;29.40;4.35;;;;;;;24.73;100.00;167044.25;5030238;28;20048;-60
2022/08/03 07:16:14;;;;;;;15.18;3.25;;;;;;;24.92;100.00;167095.91;5030415;28;20400;-60
2022/08/03 07:18:39;;;;;;;15.52;3.42;;;;;;;24.99;100.00;167113.63;5032140;28;20017;-60
2022/08/03 07:21:06;;;;;;;5.88;2.55;;;;;;;24.90;100.00;167090.53;5030061;28;20099;-65
2022/08/03 07:23:32;;;;;;;18.83;4.50;;;;;;;24.90;100.00;167090.53;5022443;28;20528;-59
2022/08/03 07:25:57;;;;;;;4.47;2.83;;;;;;;24.91;100.00;167093.19;5015090;28;20042;-59
2022/08/03 07:28:22;;;;;;;10.27;4.18;;;;;;;24.77;100.00;167055.09;5014067;28;20049;-60
2022/08/03 07:30:48;;;;;;;10.18;3.05;;;;;;;24.44;100.00;166969.38;5027959;28;20041;-59
2022/08/03 07:33:14;;;;;;;13.85;3.17;;;;;;;24.16;100.00;166894.59;5028061;28;20037;-59
2022/08/03 07:35:39;;;;;;;15.68;3.90;;;;;;;23.92;100.00;166833.31;5027489;28;20045;-59
2022/08/03 07:38:04;;;;;;;10.30;2.85;;;;;;;24.06;100.00;166870.09;5021961;28;20018;-60
2022/08/03 07:40:30;;;;;;;13.95;3.53;;;;;;;24.28;100.00;166927.22;5029072;28;20440;-59
2022/08/03 07:42:57;;;;;;;12.68;3.30;;;;;;;24.37;100.00;166951.72;5011603;28;20029;-59
2022/08/03 07:45:23;;;;;;;6.50;3.17;;;;;;;24.58;100.00;167006.09;5019133;28;20037;-60
2022/08/03 07:47:48;;;;;;;10.55;3.17;;;;;;;24.64;100.00;167022.44;5025839;28;20026;-59
2022/08/03 07:50:14;;;;;;;10.77;3.50;;;;;;;24.78;100.00;167057.84;5009972;28;20083;-59
2022/08/03 07:52:48;;;;;;;17.10;3.55;;;;;;;24.91;100.00;167093.19;5019053;28;20366;-60
2022/08/03 07:55:15;;;;;;;15.60;3.33;;;;;;;24.88;100.00;167085.06;5029717;28;20037;-60
2022/08/03 07:57:40;;;;;;;14.13;5.57;;;;;;;24.92;100.00;167094.59;5012688;28;20033;-60
2022/08/03 08:00:12;;;;;;;10.55;3.72;;;;;;;25.17;100.00;167161.25;5013210;28;20037;-60
2022/08/03 08:02:38;;;;;;;11.77;2.92;;;;;;;25.16;100.00;167158.50;5031356;28;20078;-60
2022/08/03 08:05:04;;;;;;;11.45;2.25;;;;;;;25.23;100.00;167177.56;5028854;28;20029;-59
2022/08/03 08:07:29;;;;;;;12.20;2.60;;;;;;;25.37;100.00;167212.94;5027266;28;20378;-60
2022/08/03 08:09:56;;;;;;;4.68;2.40;;;;;;;25.38;100.00;167215.66;5029231;28;20034;-59
2022/08/03 08:12:21;;;;;;;13.85;3.13;;;;;;;25.49;100.00;167245.69;5030834;28;20478;-59
2022/08/03 08:14:47;;;;;;;16.60;3.00;;;;;;;25.43;100.00;167229.34;5029709;28;20033;-59
2022/08/03 08:17:13;;;;;;;11.32;2.85;;;;;;;25.60;100.00;167275.59;5031328;28;20022;-59
2022/08/03 08:19:38;;;;;;;19.42;3.63;;;;;;;25.79;100.00;167324.59;5022393;28;20061;-60
2022/08/03 08:22:05;;;;;;;16.73;2.70;;;;;;;26.15;100.00;167419.94;5019064;28;20021;-63
2022/08/03 08:24:31;;;;;;;11.32;3.10;;;;;;;26.69;100.00;167562.88;5029488;28;20121;-60
2022/08/03 08:26:56;;;;;;;10.45;3.00;;;;;;;-146.58;100.00;69501.63;5030219;28;20080;-60
2022/08/03 08:29:22;;;;;;;10.50;3.88;;;;;;;-146.58;100.00;69501.63;5029216;28;20025;-60
2022/08/03 08:31:48;;;;;;;9.05;3.53;;;;;;;-146.58;100.00;69501.63;5014392;28;20042;-59
2022/08/03 08:34:14;;;;;;;9.18;2.50;;;;;;;-146.58;100.00;69501.63;5010110;28;20021;-60
2022/08/03 08:36:40;;;;;;;10.52;2.83;;;;;;;-146.58;100.00;69501.63;5011160;28;20022;-59
2022/08/03 08:39:05;;;;;;;9.43;2.20;;;;;;;-146.58;100.00;69501.63;5010464;28;20022;-59
2022/08/03 08:41:33;;;;;;;5.95;2.42;;;;;;;-146.58;100.00;69501.63;5008293;28;20053;-59
2022/08/03 08:43:59;;;;;;;12.98;3.42;;;;;;;-146.58;100.00;69501.63;5010972;28;20080;-59
2022/08/03 08:46:24;;;;;;;8.57;2.05;;;;;;;-146.58;100.00;69501.63;5024124;28;20053;-60
2022/08/03 08:48:51;;;;;;;8.30;1.77;;;;;;;-146.58;100.00;69501.63;5014036;28;20022;-60
2022/08/03 08:51:19;;;;;;;11.88;2.20;;;;;;;-146.58;100.00;69501.63;5021071;28;20047;-59
2022/08/03 08:53:48;;;;;;;11.15;2.22;;;;;;;-146.58;100.00;69501.63;5016822;28;20447;-59
2022/08/03 08:56:15;;;;;;;16.25;3.28;;;;;;;-146.58;100.00;69501.63;5009102;28;20486;-59
2022/08/03 08:58:45;;;;;;;7.60;2.70;;;;;;;-146.58;100.00;69501.63;5010804;28;20029;-60
2022/08/03 09:01:11;;;;;;;12.25;4.05;;;;;;;26.69;100.00;167562.88;5010292;28;20480;-61
2022/08/03 09:03:36;;;;;;;9.68;2.45;;;;;;;27.69;100.00;167825.81;5010563;28;20455;-60
2022/08/03 09:06:02;;;;;;;9.60;1.98;;;;;;;27.97;100.00;167899.38;5008854;28;20041;-61
2022/08/03 09:08:29;;;;;;;14.30;4.20;;;;;;;28.24;100.00;167971.63;5018723;28;20030;-61
2022/08/03 09:10:54;;;;;;;9.18;3.00;;;;;;;28.42;100.00;168019.31;5029002;28;20045;-61
2022/08/03 09:13:19;;;;;;;3.95;2.70;;;;;;;28.68;100.00;168087.47;5029685;28;20026;-61
2022/08/03 09:15:45;;;;;;;7.95;2.28;;;;;;;28.96;100.00;168161.09;5028897;28;20065;-61
2022/08/03 09:18:11;;;;;;;7.35;1.98;;;;;;;28.90;100.00;168146.09;5018704;28;20026;-61
2022/08/03 09:20:36;;;;;;;9.13;2.72;;;;;;;29.06;100.00;168187.00;5015291;28;20038;-61
2022/08/03 09:23:08;;;;;;;6.90;3.00;;;;;;;29.34;100.00;168262.03;5029023;28;20076;-61
2022/08/03 09:25:37;;;;;;;5.35;1.88;;;;;;;29.54;100.00;168313.81;5027868;28;20041;-60
2022/08/03 09:28:16;;;;;;;10.32;2.67;;;;;;;29.54;100.00;168313.81;5032305;28;20053;-61
2022/08/03 09:30:43;;;;;;;7.97;2.00;;;;;;;29.66;100.00;168345.19;5022166;28;20084;-60
2022/08/03 09:33:16;;;;;;;6.53;2.45;;;;;;;29.67;100.00;168349.31;5020042;28;20017;-61
2022/08/03 09:35:43;;;;;;;19.75;1.85;;;;;;;29.80;100.00;168382.00;5032109;28;20045;-60
2022/08/03 09:38:14;;;;;;;6.82;2.00;;;;;;;29.97;100.00;168428.44;5033865;28;20040;-60
2022/08/03 09:40:40;;;;;;;12.23;2.15;;;;;;;29.80;100.00;168382.00;5031799;28;20400;-60
2022/08/03 09:43:06;;;;;;;6.78;2.08;;;;;;;29.62;100.00;168335.63;5033428;28;20480;-60
2022/08/03 09:45:33;;;;;;;7.63;2.42;;;;;;;29.69;100.00;168354.72;5030879;28;20075;-60
2022/08/03 09:48:24;;;;;;;8.70;2.97;;;;;;;29.81;100.00;168384.75;5026847;28;20392;-59
2022/08/03 09:50:55;;;;;;;8.65;2.47;;;;;;;29.71;100.00;168360.19;5032109;28;20050;-60
2022/08/03 09:53:21;;;;;;;7.38;2.38;;;;;;;29.66;100.00;168346.56;5033045;28;20117;-60
2022/08/03 09:56:00;;;;;;;10.23;2.30;;;;;;;29.58;100.00;168324.75;5031672;28;20183;-60
2022/08/03 09:58:27;;;;;;;11.10;1.92;;;;;;;29.54;100.00;168315.19;5033526;28;20033;-60
2022/08/03 10:01:02;;;;;;;10.23;3.20;;;;;;;29.67;100.00;168349.31;5022524;28;20037;-60
2022/08/03 10:03:33;;;;;;;23.90;3.85;;;;;;;29.73;100.00;168365.66;5031752;28;20568;-60
2022/08/03 10:06:14;;;;;;;10.73;3.30;;;;;;;29.73;100.00;168365.66;5032050;28;20094;-60
2022/08/03 10:08:40;;;;;;;15.02;3.03;;;;;;;29.76;100.00;168373.81;5013609;28;20501;-60
2022/08/03 10:11:05;;;;;;;12.32;2.78;;;;;;;29.88;100.00;168403.81;5017624;28;20041;-60
2022/08/03 10:13:30;;;;;;;12.90;3.15;;;;;;;29.93;100.00;168417.50;5033043;28;20595;-60
2022/08/03 10:15:56;;;;;;;9.50;3.05;;;;;;;29.82;100.00;168387.47;5030782;28;20045;-60
2022/08/03 10:18:21;;;;;;;21.30;5.07;;;;;;;29.84;100.00;168394.28;5021643;28;20414;-60
2022/08/03 10:20:57;;;;;;;11.32;2.72;;;;;;;30.00;100.00;168436.59;5026403;28;20053;-60
2022/08/03 10:23:24;;;;;;;19.40;4.03;;;;;;;29.74;100.00;168368.38;5032919;28;20152;-60
2022/08/03 10:25:56;;;;;;;23.40;4.78;;;;;;;29.92;100.00;168414.75;5031256;28;20038;-60
2022/08/03 10:28:22;;;;;;;19.48;4.43;;;;;;;30.37;100.00;168533.41;5032606;28;20080;-61
2022/08/03 10:30:51;;;;;;;19.17;6.65;;;;;;;30.32;100.00;168521.16;5029347;28;20481;-60
2022/08/03 10:33:26;;;;;;;23.75;5.35;;;;;;;30.66;100.00;168609.84;5014130;28;20116;-60
2022/08/03 10:35:54;;;;;;;21.40;5.60;;;;;;;30.56;100.00;168582.53;5013165;28;20038;-60
2022/08/03 10:38:24;;;;;;;20.40;4.78;;;;;;;30.80;100.00;168646.63;5013430;28;20018;-60
2022/08/03 10:40:54;;;;;;;21.00;5.45;;;;;;;30.76;100.00;168635.75;5031353;28;20038;-60
2022/08/03 10:43:24;;;;;;;15.05;3.83;;;;;;;30.85;100.00;168660.31;5031946;28;20040;-61
2022/08/03 10:45:50;;;;;;;13.02;4.25;;;;;;;30.78;100.00;168641.22;5028214;28;20565;-61
2022/08/03 10:48:17;;;;;;;13.88;4.35;;;;;;;30.72;100.00;168624.84;5021130;28;20027;-60
2022/08/03 10:50:44;;;;;;;21.95;5.05;;;;;;;30.48;100.00;168563.41;5026287;28;20796;-60
2022/08/03 10:53:09;;;;;;;28.70;5.72;;;;;;;30.60;100.00;168594.81;5023050;28;20048;-60
2022/08/03 10:58:36;;;;;;;23.48;4.78;;;;;;;30.91;100.00;168676.66;5025809;28;20061;-60
2022/08/03 11:01:03;;;;;;;27.67;4.95;;;;;;;30.79;100.00;168643.94;5021611;28;20042;-60
2022/08/03 11:03:29;;;;;;;14.48;4.07;;;;;;;31.00;100.00;168699.84;5031187;28;20094;-61
2022/08/03 11:06:15;;;;;;;14.65;4.28;;;;;;;30.86;100.00;168663.03;5015302;28;20040;-60
2022/08/03 11:08:41;;;;;;;17.60;3.90;;;;;;;30.33;100.00;168523.88;5018582;28;20032;-60
2022/08/03 11:11:18;;;;;;;17.10;5.00;;;;;;;30.58;100.00;168589.34;5017269;28;20041;-61
2022/08/03 11:14:04;;;;;;;24.38;4.22;;;;;;;30.88;100.00;168668.47;5026832;28;20101;-61
2022/08/03 11:16:45;;;;;;;14.20;3.50;;;;;;;31.09;100.00;168724.47;5012731;28;20382;-61
2022/08/03 11:19:13;;;;;;;21.27;3.47;;;;;;;31.48;100.00;168826.75;5016746;28;20124;-61
2022/08/03 11:21:51;;;;;;;13.10;3.33;;;;;;;31.82;99.00;168916.91;5032289;28;20031;-60